Skip Navigation LinksHome page > Weather > Current weather Skip Navigation Links

Current Weather

Ndjamena, Chad

For information only: do not use for flight planning or navigation.
Latest weather
Observation time Friday, October 21, 2016 6:00 PM WAT
Local time Friday, October 21, 2016 7:26 PM WAT
Flight conditions Instrument Meteorological Conditions
Wind speed calm
Visibility 2.5 mi.
Present weather haze
Sky condition
Ceiling unlimited
Temperature 90°F
Dewpoint 52°F
Altimeter 29.80 in.Hg
Derived measurements
Relative humidity 28%
Heat index 90°F
Density altitude 2565 ft.
No significant changes expected in the next two hours.
METAR FTTJ 211700Z 00000KT 4000 HZ NSC 32/11 Q1009 NOSIG


Location code

InnerDrive.Weather 4.0.5722.1 Release CLR 4.0.30319.34209
Copyright ©2015 Inner Drive Technology. All rights reserved. Portions Copyright ©1986-2015 David Braverman.

Find weather

Site navigation

Skip Navigation Links

Place info

Page info

PayPal - The safer, easier way to pay online!

Return home.

Copyright ©2016 Inner Drive Technology. Purveyors of fine, hand-crafted computer software. Page printed 2016-10-21T18:26:29 UTC.